sensor_id;sensor_type;location;lat;lon;timestamp;P1;durP1;ratioP1;P2;durP2;ratioP2
2320;SDS011;15376;48.540;9.268;2023-05-07T00:01:41;5.73;;;5.23;;
2320;SDS011;15376;48.540;9.268;2023-05-07T00:04:06;5.30;;;4.80;;
2320;SDS011;15376;48.540;9.268;2023-05-07T00:06:32;5.50;;;5.00;;
2320;SDS011;15376;48.540;9.268;2023-05-07T00:08:58;6.43;;;5.83;;
2320;SDS011;15376;48.540;9.268;2023-05-07T00:11:24;5.90;;;5.30;;
2320;SDS011;15376;48.540;9.268;2023-05-07T00:13:50;6.77;;;5.80;;
2320;SDS011;15376;48.540;9.268;2023-05-07T00:16:16;6.40;;;5.70;;
2320;SDS011;15376;48.540;9.268;2023-05-07T00:18:41;6.10;;;5.60;;
2320;SDS011;15376;48.540;9.268;2023-05-07T00:21:06;7.70;;;6.13;;
2320;SDS011;15376;48.540;9.268;2023-05-07T00:23:32;7.50;;;5.90;;
2320;SDS011;15376;48.540;9.268;2023-05-07T00:25:57;7.50;;;5.73;;
2320;SDS011;15376;48.540;9.268;2023-05-07T00:28:22;6.97;;;5.50;;
2320;SDS011;15376;48.540;9.268;2023-05-07T00:30:48;6.93;;;6.20;;
2320;SDS011;15376;48.540;9.268;2023-05-07T00:33:13;9.33;;;6.20;;
2320;SDS011;15376;48.540;9.268;2023-05-07T00:35:38;6.23;;;5.13;;
2320;SDS011;15376;48.540;9.268;2023-05-07T00:38:04;6.50;;;5.90;;
2320;SDS011;15376;48.540;9.268;2023-05-07T00:40:29;8.43;;;5.57;;
2320;SDS011;15376;48.540;9.268;2023-05-07T00:42:55;9.27;;;5.17;;
2320;SDS011;15376;48.540;9.268;2023-05-07T00:45:22;5.80;;;5.13;;
2320;SDS011;15376;48.540;9.268;2023-05-07T00:47:51;9.83;;;5.20;;
2320;SDS011;15376;48.540;9.268;2023-05-07T00:50:18;6.50;;;5.83;;
2320;SDS011;15376;48.540;9.268;2023-05-07T00:52:44;5.30;;;4.90;;
2320;SDS011;15376;48.540;9.268;2023-05-07T00:55:10;5.73;;;5.00;;
2320;SDS011;15376;48.540;9.268;2023-05-07T00:57:39;6.57;;;5.93;;
2320;SDS011;15376;48.540;9.268;2023-05-07T01:00:06;5.93;;;5.40;;
2320;SDS011;15376;48.540;9.268;2023-05-07T01:02:37;4.90;;;4.60;;
2320;SDS011;15376;48.540;9.268;2023-05-07T01:05:03;5.30;;;4.90;;
2320;SDS011;15376;48.540;9.268;2023-05-07T01:07:32;5.50;;;5.10;;
2320;SDS011;15376;48.540;9.268;2023-05-07T01:09:59;6.00;;;5.50;;
2320;SDS011;15376;48.540;9.268;2023-05-07T01:12:25;7.73;;;5.67;;
2320;SDS011;15376;48.540;9.268;2023-05-07T01:14:52;7.60;;;4.87;;
2320;SDS011;15376;48.540;9.268;2023-05-07T01:17:18;6.07;;;5.57;;
2320;SDS011;15376;48.540;9.268;2023-05-07T01:19:43;6.33;;;5.33;;
2320;SDS011;15376;48.540;9.268;2023-05-07T01:22:10;5.90;;;5.40;;
2320;SDS011;15376;48.540;9.268;2023-05-07T01:24:39;6.83;;;5.60;;
2320;SDS011;15376;48.540;9.268;2023-05-07T01:27:06;6.20;;;5.40;;
2320;SDS011;15376;48.540;9.268;2023-05-07T01:29:31;4.97;;;4.57;;
2320;SDS011;15376;48.540;9.268;2023-05-07T01:31:57;4.70;;;4.30;;
2320;SDS011;15376;48.540;9.268;2023-05-07T01:34:25;5.17;;;4.70;;
2320;SDS011;15376;48.540;9.268;2023-05-07T01:36:53;6.63;;;4.90;;
2320;SDS011;15376;48.540;9.268;2023-05-07T01:39:21;6.00;;;5.20;;
2320;SDS011;15376;48.540;9.268;2023-05-07T01:41:49;6.17;;;5.30;;
2320;SDS011;15376;48.540;9.268;2023-05-07T01:44:15;5.20;;;4.80;;
2320;SDS011;15376;48.540;9.268;2023-05-07T01:46:41;6.10;;;5.50;;
2320;SDS011;15376;48.540;9.268;2023-05-07T01:49:07;6.93;;;5.50;;
2320;SDS011;15376;48.540;9.268;2023-05-07T01:51:33;7.37;;;6.67;;
2320;SDS011;15376;48.540;9.268;2023-05-07T01:53:59;6.90;;;6.20;;
2320;SDS011;15376;48.540;9.268;2023-05-07T01:56:25;5.97;;;5.10;;
2320;SDS011;15376;48.540;9.268;2023-05-07T01:58:50;6.90;;;6.30;;
2320;SDS011;15376;48.540;9.268;2023-05-07T02:01:16;6.93;;;6.23;;
2320;SDS011;15376;48.540;9.268;2023-05-07T02:03:43;6.70;;;5.60;;
2320;SDS011;15376;48.540;9.268;2023-05-07T02:06:08;5.87;;;5.20;;
2320;SDS011;15376;48.540;9.268;2023-05-07T02:08:33;9.20;;;5.10;;
2320;SDS011;15376;48.540;9.268;2023-05-07T02:10:59;6.93;;;5.40;;
2320;SDS011;15376;48.540;9.268;2023-05-07T02:13:25;6.50;;;5.23;;
2320;SDS011;15376;48.540;9.268;2023-05-07T02:15:51;7.97;;;6.30;;
2320;SDS011;15376;48.540;9.268;2023-05-07T02:18:18;7.63;;;6.97;;
2320;SDS011;15376;48.540;9.268;2023-05-07T02:20:43;8.67;;;6.83;;
2320;SDS011;15376;48.540;9.268;2023-05-07T02:23:09;7.00;;;6.00;;
2320;SDS011;15376;48.540;9.268;2023-05-07T02:25:34;6.90;;;5.43;;
2320;SDS011;15376;48.540;9.268;2023-05-07T02:27:59;6.20;;;5.70;;
2320;SDS011;15376;48.540;9.268;2023-05-07T02:30:25;7.33;;;6.57;;
2320;SDS011;15376;48.540;9.268;2023-05-07T02:32:50;10.00;;;5.63;;
2320;SDS011;15376;48.540;9.268;2023-05-07T02:35:16;5.50;;;5.00;;
2320;SDS011;15376;48.540;9.268;2023-05-07T02:37:41;9.00;;;6.00;;
2320;SDS011;15376;48.540;9.268;2023-05-07T02:40:07;6.97;;;5.93;;
2320;SDS011;15376;48.540;9.268;2023-05-07T02:42:33;8.20;;;6.47;;
2320;SDS011;15376;48.540;9.268;2023-05-07T02:44:58;6.67;;;6.07;;
2320;SDS011;15376;48.540;9.268;2023-05-07T02:47:24;7.10;;;6.13;;
2320;SDS011;15376;48.540;9.268;2023-05-07T02:49:51;6.10;;;5.50;;
2320;SDS011;15376;48.540;9.268;2023-05-07T02:52:17;6.47;;;5.87;;
2320;SDS011;15376;48.540;9.268;2023-05-07T02:54:43;7.23;;;6.50;;
2320;SDS011;15376;48.540;9.268;2023-05-07T02:57:08;6.53;;;5.93;;
2320;SDS011;15376;48.540;9.268;2023-05-07T02:59:33;6.90;;;6.20;;
2320;SDS011;15376;48.540;9.268;2023-05-07T03:01:59;6.00;;;5.40;;
2320;SDS011;15376;48.540;9.268;2023-05-07T03:04:24;6.80;;;6.30;;
2320;SDS011;15376;48.540;9.268;2023-05-07T03:06:49;5.97;;;5.53;;
2320;SDS011;15376;48.540;9.268;2023-05-07T03:09:15;6.10;;;5.60;;
2320;SDS011;15376;48.540;9.268;2023-05-07T03:11:41;7.23;;;6.50;;
2320;SDS011;15376;48.540;9.268;2023-05-07T03:14:06;6.53;;;5.70;;
2320;SDS011;15376;48.540;9.268;2023-05-07T03:16:32;7.80;;;7.00;;
2320;SDS011;15376;48.540;9.268;2023-05-07T03:18:57;6.70;;;6.10;;
2320;SDS011;15376;48.540;9.268;2023-05-07T03:21:23;6.83;;;6.20;;
2320;SDS011;15376;48.540;9.268;2023-05-07T03:23:48;6.23;;;5.70;;
2320;SDS011;15376;48.540;9.268;2023-05-07T03:26:13;8.03;;;5.60;;
2320;SDS011;15376;48.540;9.268;2023-05-07T03:28:39;5.43;;;4.93;;
2320;SDS011;15376;48.540;9.268;2023-05-07T03:31:04;9.00;;;7.20;;
2320;SDS011;15376;48.540;9.268;2023-05-07T03:33:30;8.93;;;6.70;;
2320;SDS011;15376;48.540;9.268;2023-05-07T03:35:57;8.53;;;6.67;;
2320;SDS011;15376;48.540;9.268;2023-05-07T03:38:23;6.47;;;5.97;;
2320;SDS011;15376;48.540;9.268;2023-05-07T03:40:48;8.63;;;6.83;;
2320;SDS011;15376;48.540;9.268;2023-05-07T03:43:13;6.60;;;6.00;;
2320;SDS011;15376;48.540;9.268;2023-05-07T03:45:39;6.00;;;5.40;;
2320;SDS011;15376;48.540;9.268;2023-05-07T03:48:04;5.50;;;5.10;;
2320;SDS011;15376;48.540;9.268;2023-05-07T03:50:29;6.40;;;5.40;;
2320;SDS011;15376;48.540;9.268;2023-05-07T03:52:55;5.30;;;4.90;;
2320;SDS011;15376;48.540;9.268;2023-05-07T03:55:20;5.87;;;5.37;;
2320;SDS011;15376;48.540;9.268;2023-05-07T03:57:46;6.27;;;5.60;;
2320;SDS011;15376;48.540;9.268;2023-05-07T04:00:11;5.77;;;5.27;;
2320;SDS011;15376;48.540;9.268;2023-05-07T04:02:37;6.17;;;5.57;;
2320;SDS011;15376;48.540;9.268;2023-05-07T04:05:02;7.13;;;6.03;;
2320;SDS011;15376;48.540;9.268;2023-05-07T04:07:28;7.67;;;6.90;;
2320;SDS011;15376;48.540;9.268;2023-05-07T04:09:53;9.83;;;5.97;;
2320;SDS011;15376;48.540;9.268;2023-05-07T04:12:19;5.37;;;4.97;;
2320;SDS011;15376;48.540;9.268;2023-05-07T04:14:44;10.07;;;6.10;;
2320;SDS011;15376;48.540;9.268;2023-05-07T04:17:09;6.43;;;5.40;;
2320;SDS011;15376;48.540;9.268;2023-05-07T04:19:35;8.67;;;5.50;;
2320;SDS011;15376;48.540;9.268;2023-05-07T04:22:01;5.90;;;5.30;;
2320;SDS011;15376;48.540;9.268;2023-05-07T04:24:26;6.40;;;4.47;;
2320;SDS011;15376;48.540;9.268;2023-05-07T04:26:51;5.87;;;5.43;;
2320;SDS011;15376;48.540;9.268;2023-05-07T04:29:17;5.80;;;5.30;;
2320;SDS011;15376;48.540;9.268;2023-05-07T04:31:43;9.20;;;5.50;;
2320;SDS011;15376;48.540;9.268;2023-05-07T04:34:09;6.03;;;5.53;;
2320;SDS011;15376;48.540;9.268;2023-05-07T04:36:36;6.33;;;5.83;;
2320;SDS011;15376;48.540;9.268;2023-05-07T04:39:03;6.67;;;6.07;;
2320;SDS011;15376;48.540;9.268;2023-05-07T04:41:28;6.43;;;5.20;;
2320;SDS011;15376;48.540;9.268;2023-05-07T04:43:54;6.10;;;5.43;;
2320;SDS011;15376;48.540;9.268;2023-05-07T04:46:19;6.50;;;5.90;;
2320;SDS011;15376;48.540;9.268;2023-05-07T04:48:44;6.23;;;5.73;;
2320;SDS011;15376;48.540;9.268;2023-05-07T04:51:10;6.33;;;5.83;;
2320;SDS011;15376;48.540;9.268;2023-05-07T04:53:36;7.80;;;7.00;;
2320;SDS011;15376;48.540;9.268;2023-05-07T04:56:02;10.53;;;6.60;;
2320;SDS011;15376;48.540;9.268;2023-05-07T04:58:28;6.50;;;6.00;;
2320;SDS011;15376;48.540;9.268;2023-05-07T05:00:56;6.73;;;6.23;;
2320;SDS011;15376;48.540;9.268;2023-05-07T05:03:22;6.60;;;5.80;;
2320;SDS011;15376;48.540;9.268;2023-05-07T05:05:48;6.70;;;6.10;;
2320;SDS011;15376;48.540;9.268;2023-05-07T05:08:14;7.00;;;6.40;;
2320;SDS011;15376;48.540;9.268;2023-05-07T05:10:39;6.90;;;5.87;;
2320;SDS011;15376;48.540;9.268;2023-05-07T05:13:06;8.40;;;6.67;;
2320;SDS011;15376;48.540;9.268;2023-05-07T05:15:33;6.23;;;5.73;;
2320;SDS011;15376;48.540;9.268;2023-05-07T05:17:58;11.53;;;6.40;;
2320;SDS011;15376;48.540;9.268;2023-05-07T05:20:23;7.30;;;5.80;;
2320;SDS011;15376;48.540;9.268;2023-05-07T05:22:49;6.53;;;5.93;;
2320;SDS011;15376;48.540;9.268;2023-05-07T05:25:14;6.73;;;6.23;;
2320;SDS011;15376;48.540;9.268;2023-05-07T05:27:40;6.30;;;5.70;;
2320;SDS011;15376;48.540;9.268;2023-05-07T05:30:05;7.40;;;6.70;;
2320;SDS011;15376;48.540;9.268;2023-05-07T05:32:31;7.53;;;6.23;;
2320;SDS011;15376;48.540;9.268;2023-05-07T05:34:56;7.60;;;6.90;;
2320;SDS011;15376;48.540;9.268;2023-05-07T05:37:22;8.03;;;6.70;;
2320;SDS011;15376;48.540;9.268;2023-05-07T05:39:47;8.87;;;7.33;;
2320;SDS011;15376;48.540;9.268;2023-05-07T05:42:13;6.70;;;6.10;;
2320;SDS011;15376;48.540;9.268;2023-05-07T05:44:38;7.20;;;6.60;;
2320;SDS011;15376;48.540;9.268;2023-05-07T05:47:03;6.80;;;6.10;;
2320;SDS011;15376;48.540;9.268;2023-05-07T05:49:29;6.40;;;5.83;;
2320;SDS011;15376;48.540;9.268;2023-05-07T05:51:54;7.83;;;7.23;;
2320;SDS011;15376;48.540;9.268;2023-05-07T05:54:20;7.10;;;6.60;;
2320;SDS011;15376;48.540;9.268;2023-05-07T05:56:46;8.63;;;6.00;;
2320;SDS011;15376;48.540;9.268;2023-05-07T05:59:12;5.93;;;5.47;;
2320;SDS011;15376;48.540;9.268;2023-05-07T06:01:37;6.23;;;5.73;;
2320;SDS011;15376;48.540;9.268;2023-05-07T06:04:03;7.70;;;6.07;;
2320;SDS011;15376;48.540;9.268;2023-05-07T06:06:29;6.70;;;6.00;;
2320;SDS011;15376;48.540;9.268;2023-05-07T06:08:56;6.37;;;5.77;;
2320;SDS011;15376;48.540;9.268;2023-05-07T06:11:21;6.70;;;5.83;;
2320;SDS011;15376;48.540;9.268;2023-05-07T06:13:46;7.13;;;6.47;;
2320;SDS011;15376;48.540;9.268;2023-05-07T06:16:12;12.20;;;9.60;;
2320;SDS011;15376;48.540;9.268;2023-05-07T06:18:37;6.97;;;6.27;;
2320;SDS011;15376;48.540;9.268;2023-05-07T06:21:02;7.20;;;6.50;;
2320;SDS011;15376;48.540;9.268;2023-05-07T06:23:28;8.03;;;7.33;;
2320;SDS011;15376;48.540;9.268;2023-05-07T06:25:53;7.10;;;6.50;;
2320;SDS011;15376;48.540;9.268;2023-05-07T06:28:19;6.33;;;5.83;;
2320;SDS011;15376;48.540;9.268;2023-05-07T06:30:44;5.90;;;5.30;;
2320;SDS011;15376;48.540;9.268;2023-05-07T06:33:10;6.33;;;5.73;;
2320;SDS011;15376;48.540;9.268;2023-05-07T06:35:35;6.50;;;6.00;;
2320;SDS011;15376;48.540;9.268;2023-05-07T06:38:00;6.87;;;6.27;;
2320;SDS011;15376;48.540;9.268;2023-05-07T06:40:26;7.10;;;6.30;;
2320;SDS011;15376;48.540;9.268;2023-05-07T06:42:52;5.90;;;5.30;;
2320;SDS011;15376;48.540;9.268;2023-05-07T06:45:17;5.87;;;5.37;;
2320;SDS011;15376;48.540;9.268;2023-05-07T06:47:42;7.20;;;6.40;;
2320;SDS011;15376;48.540;9.268;2023-05-07T06:50:08;5.93;;;5.50;;
2320;SDS011;15376;48.540;9.268;2023-05-07T06:52:34;5.50;;;4.97;;
2320;SDS011;15376;48.540;9.268;2023-05-07T06:55:00;5.70;;;5.07;;
2320;SDS011;15376;48.540;9.268;2023-05-07T06:57:25;5.10;;;4.60;;
2320;SDS011;15376;48.540;9.268;2023-05-07T06:59:51;5.00;;;4.60;;
2320;SDS011;15376;48.540;9.268;2023-05-07T07:02:16;5.30;;;4.80;;
2320;SDS011;15376;48.540;9.268;2023-05-07T07:04:41;5.47;;;4.97;;
2320;SDS011;15376;48.540;9.268;2023-05-07T07:07:07;7.73;;;6.87;;
2320;SDS011;15376;48.540;9.268;2023-05-07T07:09:32;7.27;;;6.30;;
2320;SDS011;15376;48.540;9.268;2023-05-07T07:11:58;5.40;;;4.93;;
2320;SDS011;15376;48.540;9.268;2023-05-07T07:14:23;5.30;;;4.90;;
2320;SDS011;15376;48.540;9.268;2023-05-07T07:16:48;5.90;;;5.00;;
2320;SDS011;15376;48.540;9.268;2023-05-07T07:19:14;5.27;;;4.87;;
2320;SDS011;15376;48.540;9.268;2023-05-07T07:21:40;5.53;;;5.13;;
2320;SDS011;15376;48.540;9.268;2023-05-07T07:24:06;7.57;;;6.87;;
2320;SDS011;15376;48.540;9.268;2023-05-07T07:26:31;5.40;;;4.90;;
2320;SDS011;15376;48.540;9.268;2023-05-07T07:28:57;5.20;;;4.80;;
2320;SDS011;15376;48.540;9.268;2023-05-07T07:31:22;5.50;;;5.10;;
2320;SDS011;15376;48.540;9.268;2023-05-07T07:33:48;9.00;;;5.97;;
2320;SDS011;15376;48.540;9.268;2023-05-07T07:36:15;5.30;;;4.90;;
2320;SDS011;15376;48.540;9.268;2023-05-07T07:38:40;6.07;;;5.10;;
2320;SDS011;15376;48.540;9.268;2023-05-07T07:41:07;5.10;;;4.70;;
2320;SDS011;15376;48.540;9.268;2023-05-07T07:43:36;5.13;;;4.73;;
2320;SDS011;15376;48.540;9.268;2023-05-07T07:46:01;4.50;;;4.10;;
2320;SDS011;15376;48.540;9.268;2023-05-07T07:48:26;5.27;;;4.60;;
2320;SDS011;15376;48.540;9.268;2023-05-07T07:50:52;5.37;;;4.87;;
2320;SDS011;15376;48.540;9.268;2023-05-07T07:53:17;4.80;;;4.50;;
2320;SDS011;15376;48.540;9.268;2023-05-07T07:55:43;4.23;;;3.93;;
2320;SDS011;15376;48.540;9.268;2023-05-07T07:58:09;5.63;;;4.53;;
2320;SDS011;15376;48.540;9.268;2023-05-07T08:00:34;8.10;;;6.77;;
2320;SDS011;15376;48.540;9.268;2023-05-07T08:03:00;4.97;;;4.57;;
2320;SDS011;15376;48.540;9.268;2023-05-07T08:05:26;7.63;;;6.40;;
2320;SDS011;15376;48.540;9.268;2023-05-07T08:07:51;6.30;;;5.70;;
2320;SDS011;15376;48.540;9.268;2023-05-07T08:10:18;5.50;;;4.67;;
2320;SDS011;15376;48.540;9.268;2023-05-07T08:12:49;12.40;;;10.47;;
2320;SDS011;15376;48.540;9.268;2023-05-07T08:15:15;6.80;;;6.20;;
2320;SDS011;15376;48.540;9.268;2023-05-07T08:17:40;5.83;;;5.27;;
2320;SDS011;15376;48.540;9.268;2023-05-07T08:20:06;5.30;;;4.90;;
2320;SDS011;15376;48.540;9.268;2023-05-07T08:22:32;6.33;;;5.73;;
2320;SDS011;15376;48.540;9.268;2023-05-07T08:24:59;7.40;;;5.97;;
2320;SDS011;15376;48.540;9.268;2023-05-07T08:27:25;18.93;;;16.40;;
2320;SDS011;15376;48.540;9.268;2023-05-07T08:29:50;5.07;;;4.67;;
2320;SDS011;15376;48.540;9.268;2023-05-07T08:32:15;6.40;;;5.53;;
2320;SDS011;15376;48.540;9.268;2023-05-07T08:34:41;6.83;;;5.10;;
2320;SDS011;15376;48.540;9.268;2023-05-07T08:37:06;5.03;;;4.53;;
2320;SDS011;15376;48.540;9.268;2023-05-07T08:39:33;5.80;;;4.77;;
2320;SDS011;15376;48.540;9.268;2023-05-07T08:41:59;6.03;;;5.43;;
2320;SDS011;15376;48.540;9.268;2023-05-07T08:44:27;5.43;;;5.03;;
2320;SDS011;15376;48.540;9.268;2023-05-07T08:46:57;6.77;;;5.10;;
2320;SDS011;15376;48.540;9.268;2023-05-07T08:49:23;5.33;;;4.93;;
2320;SDS011;15376;48.540;9.268;2023-05-07T08:51:49;5.13;;;4.73;;
2320;SDS011;15376;48.540;9.268;2023-05-07T08:54:18;5.37;;;4.97;;
2320;SDS011;15376;48.540;9.268;2023-05-07T08:56:44;6.53;;;4.80;;
2320;SDS011;15376;48.540;9.268;2023-05-07T08:59:10;12.57;;;11.27;;
2320;SDS011;15376;48.540;9.268;2023-05-07T09:01:35;6.70;;;6.10;;
2320;SDS011;15376;48.540;9.268;2023-05-07T09:04:01;5.77;;;5.30;;
2320;SDS011;15376;48.540;9.268;2023-05-07T09:06:26;5.90;;;5.40;;
2320;SDS011;15376;48.540;9.268;2023-05-07T09:08:52;5.97;;;5.37;;
2320;SDS011;15376;48.540;9.268;2023-05-07T09:11:19;5.17;;;4.67;;
2320;SDS011;15376;48.540;9.268;2023-05-07T09:13:46;10.70;;;4.50;;
2320;SDS011;15376;48.540;9.268;2023-05-07T09:16:12;5.83;;;4.80;;
2320;SDS011;15376;48.540;9.268;2023-05-07T09:18:41;4.93;;;4.57;;
2320;SDS011;15376;48.540;9.268;2023-05-07T09:21:09;4.67;;;4.27;;
2320;SDS011;15376;48.540;9.268;2023-05-07T09:23:35;4.27;;;3.97;;
2320;SDS011;15376;48.540;9.268;2023-05-07T09:26:01;4.53;;;4.13;;
2320;SDS011;15376;48.540;9.268;2023-05-07T09:28:27;4.30;;;3.07;;
2320;SDS011;15376;48.540;9.268;2023-05-07T09:30:52;4.33;;;4.03;;
2320;SDS011;15376;48.540;9.268;2023-05-07T09:33:18;4.67;;;4.13;;
2320;SDS011;15376;48.540;9.268;2023-05-07T09:35:43;6.83;;;6.23;;
2320;SDS011;15376;48.540;9.268;2023-05-07T09:38:08;4.20;;;3.90;;
2320;SDS011;15376;48.540;9.268;2023-05-07T09:40:34;4.50;;;4.10;;
2320;SDS011;15376;48.540;9.268;2023-05-07T09:43:09;5.07;;;3.60;;
2320;SDS011;15376;48.540;9.268;2023-05-07T09:45:36;4.30;;;3.97;;
2320;SDS011;15376;48.540;9.268;2023-05-07T09:48:02;3.57;;;3.33;;
2320;SDS011;15376;48.540;9.268;2023-05-07T09:50:32;4.73;;;3.53;;
2320;SDS011;15376;48.540;9.268;2023-05-07T09:53:05;2.83;;;2.60;;
2320;SDS011;15376;48.540;9.268;2023-05-07T09:55:34;3.00;;;2.80;;
2320;SDS011;15376;48.540;9.268;2023-05-07T09:58:00;3.77;;;3.47;;
2320;SDS011;15376;48.540;9.268;2023-05-07T10:00:27;3.63;;;3.33;;
2320;SDS011;15376;48.540;9.268;2023-05-07T10:02:54;4.03;;;3.30;;
2320;SDS011;15376;48.540;9.268;2023-05-07T10:05:22;4.93;;;2.87;;
2320;SDS011;15376;48.540;9.268;2023-05-07T10:07:50;2.77;;;2.57;;
2320;SDS011;15376;48.540;9.268;2023-05-07T10:10:16;4.23;;;2.83;;
2320;SDS011;15376;48.540;9.268;2023-05-07T10:12:42;2.70;;;2.60;;
2320;SDS011;15376;48.540;9.268;2023-05-07T10:15:08;2.90;;;2.70;;
2320;SDS011;15376;48.540;9.268;2023-05-07T10:17:35;3.70;;;3.00;;
2320;SDS011;15376;48.540;9.268;2023-05-07T10:20:02;3.10;;;2.80;;
2320;SDS011;15376;48.540;9.268;2023-05-07T10:22:30;3.00;;;2.80;;
2320;SDS011;15376;48.540;9.268;2023-05-07T10:25:02;3.50;;;3.10;;
2320;SDS011;15376;48.540;9.268;2023-05-07T10:27:31;4.37;;;3.97;;
2320;SDS011;15376;48.540;9.268;2023-05-07T10:32:37;3.83;;;3.57;;
2320;SDS011;15376;48.540;9.268;2023-05-07T10:35:07;21.00;;;19.10;;
2320;SDS011;15376;48.540;9.268;2023-05-07T10:37:45;8.93;;;8.20;;
2320;SDS011;15376;48.540;9.268;2023-05-07T10:40:11;3.90;;;3.50;;
2320;SDS011;15376;48.540;9.268;2023-05-07T10:42:37;4.40;;;3.40;;
2320;SDS011;15376;48.540;9.268;2023-05-07T10:45:13;3.47;;;2.80;;
2320;SDS011;15376;48.540;9.268;2023-05-07T10:50:37;3.50;;;3.00;;
2320;SDS011;15376;48.540;9.268;2023-05-07T10:55:42;2.90;;;2.50;;
2320;SDS011;15376;48.540;9.268;2023-05-07T11:00:46;2.87;;;2.67;;
2320;SDS011;15376;48.540;9.268;2023-05-07T11:03:12;5.00;;;4.60;;
2320;SDS011;15376;48.540;9.268;2023-05-07T11:05:39;3.20;;;2.90;;
2320;SDS011;15376;48.540;9.268;2023-05-07T11:08:06;3.30;;;3.10;;
2320;SDS011;15376;48.540;9.268;2023-05-07T11:10:47;2.93;;;2.73;;
2320;SDS011;15376;48.540;9.268;2023-05-07T11:13:16;3.47;;;2.97;;
2320;SDS011;15376;48.540;9.268;2023-05-07T11:15:43;3.73;;;2.97;;
2320;SDS011;15376;48.540;9.268;2023-05-07T11:18:10;2.40;;;2.20;;
2320;SDS011;15376;48.540;9.268;2023-05-07T11:20:50;2.83;;;2.63;;
2320;SDS011;15376;48.540;9.268;2023-05-07T11:26:09;4.87;;;2.83;;
2320;SDS011;15376;48.540;9.268;2023-05-07T11:28:43;2.87;;;2.67;;
2320;SDS011;15376;48.540;9.268;2023-05-07T11:31:08;2.80;;;2.60;;
2320;SDS011;15376;48.540;9.268;2023-05-07T11:33:35;3.27;;;2.97;;
2320;SDS011;15376;48.540;9.268;2023-05-07T11:36:04;2.80;;;2.60;;
2320;SDS011;15376;48.540;9.268;2023-05-07T11:38:30;2.93;;;2.73;;
2320;SDS011;15376;48.540;9.268;2023-05-07T11:40:59;3.00;;;2.70;;
2320;SDS011;15376;48.540;9.268;2023-05-07T11:43:26;2.70;;;2.50;;
2320;SDS011;15376;48.540;9.268;2023-05-07T11:45:51;2.50;;;2.30;;
2320;SDS011;15376;48.540;9.268;2023-05-07T11:48:17;2.57;;;2.37;;
2320;SDS011;15376;48.540;9.268;2023-05-07T11:50:52;3.23;;;2.60;;
2320;SDS011;15376;48.540;9.268;2023-05-07T11:53:19;2.53;;;2.33;;
2320;SDS011;15376;48.540;9.268;2023-05-07T11:55:45;3.50;;;2.90;;
2320;SDS011;15376;48.540;9.268;2023-05-07T11:58:12;3.03;;;2.67;;
2320;SDS011;15376;48.540;9.268;2023-05-07T12:00:38;3.20;;;2.43;;
2320;SDS011;15376;48.540;9.268;2023-05-07T12:03:04;2.60;;;2.40;;
2320;SDS011;15376;48.540;9.268;2023-05-07T12:05:30;2.40;;;2.20;;
2320;SDS011;15376;48.540;9.268;2023-05-07T12:07:56;2.33;;;2.13;;
2320;SDS011;15376;48.540;9.268;2023-05-07T12:10:22;2.30;;;2.10;;
2320;SDS011;15376;48.540;9.268;2023-05-07T12:12:47;2.40;;;2.20;;
2320;SDS011;15376;48.540;9.268;2023-05-07T12:15:15;1.80;;;1.70;;
2320;SDS011;15376;48.540;9.268;2023-05-07T12:17:47;4.60;;;2.10;;
2320;SDS011;15376;48.540;9.268;2023-05-07T12:20:13;2.10;;;2.00;;
2320;SDS011;15376;48.540;9.268;2023-05-07T12:22:40;2.43;;;2.23;;
2320;SDS011;15376;48.540;9.268;2023-05-07T12:25:06;2.47;;;2.10;;
2320;SDS011;15376;48.540;9.268;2023-05-07T12:27:31;5.40;;;2.73;;
2320;SDS011;15376;48.540;9.268;2023-05-07T12:29:57;2.37;;;2.17;;
2320;SDS011;15376;48.540;9.268;2023-05-07T12:32:26;3.50;;;2.97;;
2320;SDS011;15376;48.540;9.268;2023-05-07T12:34:51;7.80;;;3.27;;
2320;SDS011;15376;48.540;9.268;2023-05-07T12:37:17;5.13;;;3.23;;
2320;SDS011;15376;48.540;9.268;2023-05-07T12:40:02;3.00;;;2.80;;
2320;SDS011;15376;48.540;9.268;2023-05-07T12:42:35;4.30;;;3.23;;
2320;SDS011;15376;48.540;9.268;2023-05-07T12:45:07;6.83;;;3.27;;
2320;SDS011;15376;48.540;9.268;2023-05-07T12:47:33;6.70;;;3.33;;
2320;SDS011;15376;48.540;9.268;2023-05-07T12:49:59;3.60;;;3.30;;
2320;SDS011;15376;48.540;9.268;2023-05-07T12:52:24;3.97;;;3.67;;
2320;SDS011;15376;48.540;9.268;2023-05-07T12:54:50;5.60;;;4.40;;
2320;SDS011;15376;48.540;9.268;2023-05-07T12:57:15;3.73;;;3.47;;
2320;SDS011;15376;48.540;9.268;2023-05-07T12:59:44;4.20;;;3.10;;
2320;SDS011;15376;48.540;9.268;2023-05-07T13:02:10;4.00;;;3.70;;
2320;SDS011;15376;48.540;9.268;2023-05-07T13:04:35;3.93;;;3.63;;
2320;SDS011;15376;48.540;9.268;2023-05-07T13:07:01;4.23;;;3.63;;
2320;SDS011;15376;48.540;9.268;2023-05-07T13:09:27;6.30;;;3.80;;
2320;SDS011;15376;48.540;9.268;2023-05-07T13:11:54;5.30;;;4.17;;
2320;SDS011;15376;48.540;9.268;2023-05-07T13:14:19;3.20;;;2.80;;
2320;SDS011;15376;48.540;9.268;2023-05-07T13:16:46;5.40;;;3.80;;
2320;SDS011;15376;48.540;9.268;2023-05-07T13:19:12;7.00;;;4.43;;
2320;SDS011;15376;48.540;9.268;2023-05-07T13:21:37;5.60;;;4.30;;
2320;SDS011;15376;48.540;9.268;2023-05-07T13:24:03;5.73;;;4.30;;
2320;SDS011;15376;48.540;9.268;2023-05-07T13:26:29;4.47;;;3.73;;
2320;SDS011;15376;48.540;9.268;2023-05-07T13:28:55;5.60;;;3.77;;
2320;SDS011;15376;48.540;9.268;2023-05-07T13:31:21;8.80;;;3.87;;
2320;SDS011;15376;48.540;9.268;2023-05-07T13:33:46;5.57;;;4.03;;
2320;SDS011;15376;48.540;9.268;2023-05-07T13:36:12;8.47;;;4.30;;
2320;SDS011;15376;48.540;9.268;2023-05-07T13:38:38;4.37;;;3.30;;
2320;SDS011;15376;48.540;9.268;2023-05-07T13:41:04;6.40;;;5.30;;
2320;SDS011;15376;48.540;9.268;2023-05-07T13:43:29;15.13;;;5.63;;
2320;SDS011;15376;48.540;9.268;2023-05-07T13:45:55;8.50;;;5.67;;
2320;SDS011;15376;48.540;9.268;2023-05-07T13:48:20;7.10;;;6.43;;
2320;SDS011;15376;48.540;9.268;2023-05-07T13:50:45;7.63;;;6.17;;
2320;SDS011;15376;48.540;9.268;2023-05-07T13:53:11;9.13;;;6.87;;
2320;SDS011;15376;48.540;9.268;2023-05-07T13:55:36;6.20;;;5.70;;
2320;SDS011;15376;48.540;9.268;2023-05-07T13:58:02;9.90;;;6.27;;
2320;SDS011;15376;48.540;9.268;2023-05-07T14:00:28;6.60;;;6.00;;
2320;SDS011;15376;48.540;9.268;2023-05-07T14:02:54;7.87;;;7.07;;
2320;SDS011;15376;48.540;9.268;2023-05-07T14:05:20;7.53;;;6.83;;
2320;SDS011;15376;48.540;9.268;2023-05-07T14:07:48;12.93;;;10.00;;
2320;SDS011;15376;48.540;9.268;2023-05-07T14:10:16;9.87;;;8.90;;
2320;SDS011;15376;48.540;9.268;2023-05-07T14:12:43;9.73;;;8.73;;
2320;SDS011;15376;48.540;9.268;2023-05-07T14:15:09;11.00;;;8.80;;
2320;SDS011;15376;48.540;9.268;2023-05-07T14:17:35;12.90;;;9.57;;
2320;SDS011;15376;48.540;9.268;2023-05-07T14:20:01;13.17;;;10.70;;
2320;SDS011;15376;48.540;9.268;2023-05-07T14:22:26;11.97;;;9.40;;
2320;SDS011;15376;48.540;9.268;2023-05-07T14:24:52;16.47;;;9.93;;
2320;SDS011;15376;48.540;9.268;2023-05-07T14:27:17;10.80;;;9.80;;
2320;SDS011;15376;48.540;9.268;2023-05-07T14:29:43;14.03;;;10.77;;
2320;SDS011;15376;48.540;9.268;2023-05-07T14:32:10;12.37;;;11.07;;
2320;SDS011;15376;48.540;9.268;2023-05-07T14:34:35;14.50;;;11.37;;
2320;SDS011;15376;48.540;9.268;2023-05-07T14:37:01;11.60;;;10.50;;
2320;SDS011;15376;48.540;9.268;2023-05-07T14:39:26;11.10;;;10.00;;
2320;SDS011;15376;48.540;9.268;2023-05-07T14:41:52;9.23;;;7.70;;
2320;SDS011;15376;48.540;9.268;2023-05-07T14:44:19;9.10;;;8.30;;
2320;SDS011;15376;48.540;9.268;2023-05-07T14:46:45;11.63;;;10.50;;
2320;SDS011;15376;48.540;9.268;2023-05-07T14:49:10;11.67;;;10.20;;
2320;SDS011;15376;48.540;9.268;2023-05-07T14:51:41;13.30;;;11.90;;
2320;SDS011;15376;48.540;9.268;2023-05-07T14:54:10;12.73;;;11.47;;
2320;SDS011;15376;48.540;9.268;2023-05-07T14:56:36;14.27;;;11.63;;
2320;SDS011;15376;48.540;9.268;2023-05-07T14:59:02;11.80;;;10.70;;
2320;SDS011;15376;48.540;9.268;2023-05-07T15:01:28;12.80;;;9.50;;
2320;SDS011;15376;48.540;9.268;2023-05-07T15:03:54;10.23;;;7.83;;
2320;SDS011;15376;48.540;9.268;2023-05-07T15:06:19;9.20;;;7.80;;
2320;SDS011;15376;48.540;9.268;2023-05-07T15:08:45;8.00;;;7.40;;